createdAt,value
2024-02-28T00:01:26.274Z,15.78
2024-02-28T00:04:29.230Z,15.89
2024-02-28T00:07:31.617Z,16.02
2024-02-28T00:10:34.638Z,15.92
2024-02-28T00:13:36.965Z,16.02
2024-02-28T00:16:43.454Z,15.79
2024-02-28T00:19:45.842Z,15.64
2024-02-28T00:22:48.853Z,15.64
2024-02-28T00:25:51.197Z,15.52
2024-02-28T00:28:54.907Z,15.51
2024-02-28T00:31:57.245Z,15.71
2024-02-28T00:35:00.208Z,15.50
2024-02-28T00:38:02.819Z,15.45
2024-02-28T00:41:05.785Z,15.76
2024-02-28T00:44:08.143Z,15.45
2024-02-28T00:47:11.279Z,15.45
2024-02-28T00:50:13.817Z,15.57
2024-02-28T00:53:17.364Z,15.40
2024-02-28T00:56:19.729Z,15.83
2024-02-28T00:59:22.658Z,15.57
2024-02-28T01:02:25.001Z,15.33
2024-02-28T01:05:28.090Z,15.27
2024-02-28T01:08:30.564Z,15.13
2024-02-28T01:11:33.494Z,15.34
2024-02-28T01:14:35.917Z,15.49
2024-02-28T01:17:38.834Z,15.43
2024-02-28T01:20:41.245Z,15.36
2024-02-28T01:23:44.106Z,15.27
2024-02-28T01:26:46.685Z,15.33
2024-02-28T01:29:49.556Z,15.27
2024-02-28T01:32:51.899Z,15.62
2024-02-28T01:35:57.574Z,15.69
2024-02-28T01:39:01.106Z,15.41
2024-02-28T01:42:04.243Z,15.18
2024-02-28T01:45:06.858Z,15.51
2024-02-28T01:48:13.244Z,15.61
2024-02-28T01:51:16.239Z,15.37
2024-02-28T01:54:19.494Z,15.37
2024-02-28T01:57:22.219Z,15.24
2024-02-28T02:00:26.254Z,15.08
2024-02-28T02:03:28.951Z,15.02
2024-02-28T02:06:32.406Z,14.92
2024-02-28T02:09:35.849Z,14.81
2024-02-28T02:12:38.860Z,15.21
2024-02-28T02:15:42.356Z,15.23
2024-02-28T02:18:45.364Z,14.87
2024-02-28T02:21:53.545Z,15.11
2024-02-28T02:24:56.374Z,15.09
2024-02-28T02:27:59.106Z,15.06
2024-02-28T02:31:01.849Z,14.80
2024-02-28T02:34:04.595Z,14.71
2024-02-28T02:37:09.813Z,14.81
2024-02-28T02:40:12.917Z,14.78
2024-02-28T02:43:15.798Z,14.72
2024-02-28T02:46:18.489Z,14.86
2024-02-28T02:49:21.267Z,14.71
2024-02-28T02:52:23.957Z,14.66
2024-02-28T02:55:26.545Z,14.97
2024-02-28T02:58:29.237Z,15.17
2024-02-28T03:01:31.963Z,15.17
2024-02-28T03:04:34.693Z,14.95
2024-02-28T03:07:37.521Z,15.09
2024-02-28T03:10:40.363Z,14.75
2024-02-28T03:13:43.020Z,14.79
2024-02-28T03:16:45.907Z,14.80
2024-02-28T03:19:48.620Z,14.84
2024-02-28T03:22:51.203Z,15.07
2024-02-28T03:25:53.992Z,15.14
2024-02-28T03:28:56.763Z,15.10
2024-02-28T03:31:59.677Z,14.75
2024-02-28T03:35:02.263Z,14.99
2024-02-28T03:38:04.913Z,15.19
2024-02-28T03:41:07.604Z,15.11
2024-02-28T03:44:10.259Z,15.09
2024-02-28T03:47:12.909Z,15.14
2024-02-28T03:50:15.551Z,15.03
2024-02-28T03:53:18.229Z,14.83
2024-02-28T03:56:27.621Z,14.48
2024-02-28T03:59:30.362Z,14.65
2024-02-28T04:02:33.230Z,15.04
2024-02-28T04:05:35.880Z,14.87
2024-02-28T04:08:38.573Z,14.91
2024-02-28T04:11:41.809Z,14.84
2024-02-28T04:14:44.387Z,14.74
2024-02-28T04:17:46.985Z,14.86
2024-02-28T04:20:49.651Z,14.97
2024-02-28T04:23:52.254Z,14.95
2024-02-28T04:26:54.900Z,15.00
2024-02-28T04:29:57.731Z,14.91
2024-02-28T04:33:00.354Z,14.94
2024-02-28T04:36:03.221Z,14.68
2024-02-28T04:39:08.551Z,14.98
2024-02-28T04:42:11.153Z,14.57
2024-02-28T04:45:14.063Z,14.86
2024-02-28T04:48:16.819Z,14.97
2024-02-28T04:51:20.039Z,14.99
2024-02-28T04:54:22.727Z,15.05
2024-02-28T04:57:25.455Z,14.59
2024-02-28T05:00:28.290Z,14.45
2024-02-28T05:03:31.058Z,14.87
2024-02-28T05:06:34.384Z,14.63
2024-02-28T05:09:37.738Z,14.63
2024-02-28T05:12:40.468Z,14.71
2024-02-28T05:15:43.193Z,14.68
2024-02-28T05:18:46.601Z,14.77
2024-02-28T05:21:52.221Z,14.57
2024-02-28T05:24:55.315Z,14.59
2024-02-28T05:27:58.079Z,14.64
2024-02-28T05:31:01.387Z,14.52
2024-02-28T05:34:04.152Z,14.25
2024-02-28T05:37:07.004Z,14.07
2024-02-28T05:40:10.563Z,14.80
2024-02-28T05:43:13.356Z,14.32
2024-02-28T05:46:16.416Z,14.19
2024-02-28T05:49:19.100Z,14.54
2024-02-28T05:52:21.710Z,14.82
2024-02-28T05:55:25.355Z,14.59
2024-02-28T05:58:28.014Z,14.35
2024-02-28T06:01:30.795Z,14.25
2024-02-28T06:04:34.504Z,14.64
2024-02-28T06:07:36.878Z,14.44
2024-02-28T06:10:39.832Z,14.80
2024-02-28T06:13:42.613Z,14.76
2024-02-28T06:16:48.750Z,14.59
2024-02-28T06:19:51.039Z,14.79
2024-02-28T06:22:53.924Z,14.53
2024-02-28T06:25:56.697Z,14.33
2024-02-28T06:29:02.853Z,14.58
2024-02-28T06:32:05.760Z,14.94
2024-02-28T06:35:09.185Z,14.85
2024-02-28T06:38:11.605Z,14.84
2024-02-28T06:41:15.421Z,15.02
2024-02-28T06:44:17.883Z,14.87
2024-02-28T06:47:20.780Z,15.05
2024-02-28T06:50:23.039Z,14.68
2024-02-28T06:53:26.542Z,15.11
2024-02-28T06:56:28.846Z,15.24
2024-02-28T06:59:32.671Z,14.97
2024-02-28T07:02:36.200Z,15.11
2024-02-28T07:05:39.351Z,14.93
2024-02-28T07:08:41.708Z,14.97
2024-02-28T07:11:44.799Z,15.06
2024-02-28T07:14:49.912Z,14.99
2024-02-28T07:17:52.853Z,14.93
2024-02-28T07:20:55.817Z,15.37
2024-02-28T07:23:58.731Z,15.45
2024-02-28T07:27:01.191Z,15.25
2024-02-28T07:30:04.445Z,15.46
2024-02-28T07:33:07.527Z,15.57
2024-02-28T07:36:11.326Z,15.76
2024-02-28T07:39:13.887Z,15.73
2024-02-28T07:42:16.748Z,16.18
2024-02-28T07:45:19.898Z,16.97
2024-02-28T07:48:23.152Z,17.19
2024-02-28T07:51:25.596Z,17.41
2024-02-28T07:54:28.567Z,17.72
2024-02-28T07:57:32.223Z,17.65
2024-02-28T08:00:36.780Z,17.77
2024-02-28T08:03:39.794Z,17.67
2024-02-28T08:06:42.578Z,17.56
2024-02-28T08:09:45.343Z,17.54
2024-02-28T08:12:48.038Z,17.68
2024-02-28T08:15:50.639Z,18.00
2024-02-28T08:18:53.445Z,18.77
2024-02-28T08:21:56.192Z,19.77
2024-02-28T08:24:58.967Z,20.01
2024-02-28T08:28:01.890Z,19.78
2024-02-28T08:31:05.000Z,19.63
2024-02-28T08:34:07.743Z,19.62
2024-02-28T08:37:10.476Z,19.79
2024-02-28T08:40:13.701Z,21.55
2024-02-28T08:43:16.416Z,23.12
2024-02-28T08:46:19.165Z,24.82
2024-02-28T08:49:21.870Z,26.22
2024-02-28T08:52:24.682Z,27.52
2024-02-28T08:55:27.351Z,28.76
2024-02-28T08:58:30.217Z,30.74
2024-02-28T09:01:35.025Z,32.53
2024-02-28T09:04:37.731Z,33.69
2024-02-28T09:07:40.436Z,34.50
2024-02-28T09:10:43.077Z,35.51
2024-02-28T09:13:45.744Z,36.27
2024-02-28T09:16:48.980Z,36.34
2024-02-28T09:19:51.625Z,34.73
2024-02-28T09:22:54.349Z,33.95
2024-02-28T09:25:57.356Z,34.20
2024-02-28T09:29:00.054Z,33.71
2024-02-28T09:32:02.736Z,31.73
2024-02-28T09:35:06.009Z,30.41
2024-02-28T09:38:08.664Z,29.27
2024-02-28T09:41:16.350Z,28.64
2024-02-28T09:44:19.395Z,28.16
2024-02-28T09:47:22.180Z,27.53
2024-02-28T09:50:26.512Z,27.44
2024-02-28T09:53:29.230Z,27.05
2024-02-28T09:56:32.194Z,27.31
2024-02-28T09:59:43.115Z,27.46
2024-02-28T10:02:55.281Z,27.18
2024-02-28T10:05:57.976Z,26.80
2024-02-28T10:09:00.610Z,26.83
2024-02-28T10:12:03.991Z,26.91
2024-02-28T10:15:06.832Z,27.21
2024-02-28T10:18:09.492Z,27.13
2024-02-28T10:21:19.021Z,27.18
2024-02-28T10:24:24.936Z,27.52
2024-02-28T10:27:27.677Z,27.46
2024-02-28T10:30:30.483Z,27.33
2024-02-28T10:33:34.633Z,27.52
2024-02-28T10:36:37.533Z,27.39
2024-02-28T10:39:40.726Z,26.90
2024-02-28T10:42:43.750Z,27.08
2024-02-28T10:45:58.481Z,26.70
2024-02-28T10:49:10.451Z,26.56
2024-02-28T10:52:15.824Z,26.92
2024-02-28T10:55:21.970Z,27.35
2024-02-28T10:58:25.801Z,27.53
2024-02-28T11:01:31.456Z,27.45
2024-02-28T11:04:34.442Z,27.27
2024-02-28T11:07:37.088Z,27.33
2024-02-28T11:10:47.466Z,27.22
2024-02-28T11:13:54.192Z,26.85
2024-02-28T11:17:03.543Z,26.93
2024-02-28T11:20:12.488Z,26.76
2024-02-28T11:23:17.970Z,26.29
2024-02-28T11:26:21.820Z,26.52
2024-02-28T11:29:29.533Z,26.46
2024-02-28T11:32:33.730Z,26.52
2024-02-28T11:35:36.602Z,26.76
2024-02-28T11:38:39.653Z,27.02
2024-02-28T11:41:42.502Z,27.00
2024-02-28T11:44:55.584Z,26.76
2024-02-28T11:47:59.168Z,26.83
2024-02-28T11:51:01.860Z,26.63
2024-02-28T11:54:04.550Z,26.64
2024-02-28T11:57:08.920Z,26.58
2024-02-28T12:00:14.053Z,26.66
2024-02-28T12:03:24.062Z,26.53
2024-02-28T12:06:26.832Z,26.58
2024-02-28T12:09:38.249Z,26.33
2024-02-28T12:12:45.709Z,26.37
2024-02-28T12:15:49.700Z,26.41
2024-02-28T12:18:53.261Z,25.92
2024-02-28T12:21:56.280Z,26.16
2024-02-28T12:25:01.029Z,26.24
2024-02-28T12:28:04.059Z,25.64
2024-02-28T12:31:10.041Z,25.76
2024-02-28T12:34:12.903Z,25.13
2024-02-28T12:37:15.818Z,24.75
2024-02-28T12:40:18.515Z,24.55
2024-02-28T12:43:21.157Z,24.51
2024-02-28T12:46:23.863Z,24.05
2024-02-28T12:49:26.632Z,24.01
2024-02-28T12:52:29.475Z,24.01
2024-02-28T12:55:32.349Z,23.82
2024-02-28T12:58:34.995Z,23.66
2024-02-28T13:01:37.916Z,23.43
2024-02-28T13:04:40.881Z,23.36
2024-02-28T13:07:43.976Z,23.86
2024-02-28T13:10:46.616Z,24.01
2024-02-28T13:13:50.363Z,24.18
2024-02-28T13:16:55.003Z,24.17
2024-02-28T13:19:57.619Z,24.57
2024-02-28T13:23:01.336Z,24.71
2024-02-28T13:26:05.690Z,24.76
2024-02-28T13:29:08.451Z,24.82
2024-02-28T13:32:11.066Z,25.26
2024-02-28T13:35:13.712Z,24.83
2024-02-28T13:38:16.308Z,24.77
2024-02-28T13:41:18.915Z,24.57
2024-02-28T13:44:21.524Z,24.84
2024-02-28T13:47:24.829Z,25.17
2024-02-28T13:50:32.842Z,25.37
2024-02-28T13:53:36.048Z,24.88
2024-02-28T13:56:38.931Z,24.54
2024-02-28T13:59:41.597Z,24.58
2024-02-28T14:02:44.233Z,24.55
2024-02-28T14:05:46.885Z,24.27
2024-02-28T14:08:50.080Z,24.11
2024-02-28T14:11:52.883Z,23.94
2024-02-28T14:14:55.667Z,23.88
2024-02-28T14:17:58.356Z,23.63
2024-02-28T14:21:03.471Z,23.47
2024-02-28T14:24:08.396Z,23.26
2024-02-28T14:27:11.032Z,23.15
2024-02-28T14:30:14.196Z,23.14
2024-02-28T14:33:17.336Z,22.95
2024-02-28T14:36:21.783Z,22.94
2024-02-28T14:39:25.584Z,22.76
2024-02-28T14:42:28.410Z,22.76
2024-02-28T14:45:33.298Z,22.64
2024-02-28T14:48:36.272Z,22.39
2024-02-28T14:51:40.537Z,22.26
2024-02-28T14:54:45.462Z,22.15
2024-02-28T14:57:48.149Z,21.93
2024-02-28T15:00:50.889Z,21.92
2024-02-28T15:03:53.645Z,21.74
2024-02-28T15:06:56.498Z,21.60
2024-02-28T15:10:01.488Z,21.43
2024-02-28T15:13:05.315Z,21.48
2024-02-28T15:16:08.234Z,21.38
2024-02-28T15:19:11.016Z,21.18
2024-02-28T15:22:13.676Z,21.03
2024-02-28T15:25:16.462Z,20.71
2024-02-28T15:28:19.083Z,20.72
2024-02-28T15:31:22.449Z,20.53
2024-02-28T15:34:25.101Z,20.39
2024-02-28T15:37:28.175Z,20.32
2024-02-28T15:40:30.980Z,20.43
2024-02-28T15:43:34.632Z,20.16
2024-02-28T15:46:38.732Z,20.07
2024-02-28T15:49:41.918Z,19.91
2024-02-28T15:52:45.151Z,19.92
2024-02-28T15:55:47.883Z,19.92
2024-02-28T15:58:50.589Z,19.75
2024-02-28T16:01:53.192Z,19.78
2024-02-28T16:04:56.089Z,19.54
2024-02-28T16:07:58.550Z,19.57
2024-02-28T16:11:01.654Z,19.40
2024-02-28T16:14:04.187Z,19.24
2024-02-28T16:17:07.159Z,19.09
2024-02-28T16:20:10.026Z,18.99
2024-02-28T16:23:13.256Z,18.94
2024-02-28T16:26:16.274Z,18.86
2024-02-28T16:29:19.208Z,18.75
2024-02-28T16:32:21.535Z,18.63
2024-02-28T16:35:24.444Z,18.51
2024-02-28T16:38:26.819Z,18.30
2024-02-28T16:41:29.725Z,18.26
2024-02-28T16:44:32.614Z,18.25
2024-02-28T16:47:35.760Z,18.36
2024-02-28T16:50:38.194Z,18.16
2024-02-28T16:53:41.486Z,18.11
2024-02-28T16:56:43.892Z,17.99
2024-02-28T16:59:47.439Z,17.93
2024-02-28T17:02:49.903Z,17.86
2024-02-28T17:05:52.766Z,17.80
2024-02-28T17:08:55.095Z,17.75
2024-02-28T17:11:58.056Z,17.84
2024-02-28T17:15:00.684Z,17.66
2024-02-28T17:18:04.374Z,17.66
2024-02-28T17:21:07.376Z,17.49
2024-02-28T17:24:10.448Z,17.44
2024-02-28T17:27:13.038Z,17.35
2024-02-28T17:30:16.920Z,17.35
2024-02-28T17:33:19.349Z,17.47
2024-02-28T17:36:22.397Z,17.55
2024-02-28T17:39:25.659Z,17.37
2024-02-28T17:42:31.503Z,17.28
2024-02-28T17:45:33.988Z,17.21
2024-02-28T17:48:39.184Z,17.21
2024-02-28T17:51:43.727Z,17.10
2024-02-28T17:54:47.545Z,17.11
2024-02-28T17:57:51.869Z,17.28
2024-02-28T18:00:59.040Z,17.09
2024-02-28T18:04:02.884Z,17.13
2024-02-28T18:07:05.636Z,16.87
2024-02-28T18:10:08.628Z,16.90
2024-02-28T18:13:16.181Z,17.07
2024-02-28T18:16:20.431Z,16.86
2024-02-28T18:19:23.492Z,16.89
2024-02-28T18:22:26.150Z,16.94
2024-02-28T18:25:28.738Z,17.02
2024-02-28T18:28:31.456Z,16.94
2024-02-28T18:31:34.283Z,16.72
2024-02-28T18:34:36.962Z,16.63
2024-02-28T18:37:41.330Z,16.67
2024-02-28T18:40:44.592Z,16.59
2024-02-28T18:43:48.136Z,16.57
2024-02-28T18:46:51.119Z,16.54
2024-02-28T18:49:53.780Z,16.55
2024-02-28T18:52:56.429Z,16.51
2024-02-28T18:55:59.097Z,16.50
2024-02-28T18:59:01.804Z,16.44
2024-02-28T19:02:06.148Z,16.39
2024-02-28T19:05:09.016Z,16.39
2024-02-28T19:08:11.909Z,16.34
2024-02-28T19:11:14.577Z,16.27
2024-02-28T19:14:17.200Z,16.24
2024-02-28T19:17:20.787Z,16.19
2024-02-28T19:20:24.277Z,16.25
2024-02-28T19:23:26.841Z,16.05
2024-02-28T19:26:31.411Z,16.02
2024-02-28T19:29:34.105Z,16.06
2024-02-28T19:32:39.024Z,16.02
2024-02-28T19:35:42.164Z,16.12
2024-02-28T19:38:44.781Z,15.99
2024-02-28T19:41:47.490Z,15.95
2024-02-28T19:44:50.171Z,15.98
2024-02-28T19:47:53.191Z,16.04
2024-02-28T19:50:55.900Z,16.14
2024-02-28T19:53:59.279Z,15.99
2024-02-28T19:57:01.876Z,15.95
2024-02-28T20:00:10.362Z,15.90
2024-02-28T20:03:14.363Z,15.88
2024-02-28T20:06:17.084Z,15.92
2024-02-28T20:09:20.043Z,15.81
2024-02-28T20:12:22.496Z,15.86
2024-02-28T20:15:26.375Z,15.81
2024-02-28T20:18:28.910Z,15.89
2024-02-28T20:21:31.945Z,15.84
2024-02-28T20:24:35.138Z,15.76
2024-02-28T20:27:38.102Z,15.85
2024-02-28T20:30:40.667Z,15.84
2024-02-28T20:33:45.470Z,16.15
2024-02-28T20:36:48.148Z,16.11
2024-02-28T20:39:51.216Z,16.21
2024-02-28T20:42:53.687Z,16.03
2024-02-28T20:45:56.959Z,15.86
2024-02-28T20:48:59.327Z,15.59
2024-02-28T20:52:02.458Z,15.41
2024-02-28T20:55:05.446Z,15.23
2024-02-28T20:58:08.660Z,15.65
2024-02-28T21:01:11.110Z,15.47
2024-02-28T21:04:17.285Z,15.35
2024-02-28T21:07:23.038Z,15.23
2024-02-28T21:10:30.337Z,15.18
2024-02-28T21:13:32.744Z,15.10
2024-02-28T21:16:37.793Z,15.52
2024-02-28T21:19:40.168Z,15.52
2024-02-28T21:22:43.107Z,15.66
2024-02-28T21:25:45.538Z,15.47
2024-02-28T21:28:48.448Z,15.32
2024-02-28T21:31:50.856Z,15.45
2024-02-28T21:34:53.674Z,14.96
2024-02-28T21:37:55.977Z,14.90
2024-02-28T21:40:58.941Z,14.99
2024-02-28T21:44:01.654Z,14.82
2024-02-28T21:47:04.505Z,14.85
2024-02-28T21:50:07.330Z,14.90
2024-02-28T21:53:10.411Z,14.91
2024-02-28T21:56:12.797Z,14.81
2024-02-28T21:59:15.727Z,14.81
2024-02-28T22:02:19.689Z,14.80
2024-02-28T22:05:23.458Z,14.82
2024-02-28T22:08:25.792Z,14.68
2024-02-28T22:11:29.676Z,14.63
2024-02-28T22:14:32.070Z,14.73
2024-02-28T22:17:35.034Z,14.63
2024-02-28T22:20:37.487Z,14.67
2024-02-28T22:23:40.426Z,14.67
2024-02-28T22:26:42.775Z,14.68
2024-02-28T22:29:45.644Z,14.63
2024-02-28T22:32:47.990Z,14.61
2024-02-28T22:35:51.706Z,14.79
2024-02-28T22:38:54.201Z,14.62
2024-02-28T22:42:00.128Z,14.49
2024-02-28T22:45:02.875Z,14.69
2024-02-28T22:48:05.964Z,14.51
2024-02-28T22:51:08.406Z,14.49
2024-02-28T22:54:15.920Z,14.46
2024-02-28T22:57:18.683Z,14.49
2024-02-28T23:00:31.189Z,14.50
2024-02-28T23:03:33.979Z,14.49
2024-02-28T23:06:36.995Z,14.51
2024-02-28T23:09:39.408Z,14.40
2024-02-28T23:12:42.362Z,14.44
2024-02-28T23:15:44.827Z,14.42
2024-02-28T23:18:47.815Z,14.34
2024-02-28T23:21:50.222Z,14.30
2024-02-28T23:24:53.187Z,14.29
2024-02-28T23:27:55.842Z,14.37
2024-02-28T23:30:58.975Z,14.14
2024-02-28T23:34:01.480Z,14.43
2024-02-28T23:37:04.660Z,14.59
2024-02-28T23:40:10.183Z,14.62
2024-02-28T23:43:13.221Z,14.86
2024-02-28T23:46:15.676Z,14.71
2024-02-28T23:49:18.752Z,14.64
2024-02-28T23:52:21.100Z,14.48
2024-02-28T23:55:46.210Z,14.48
2024-02-28T23:58:48.889Z,14.42
